sensor_id;sensor_type;location;lat;lon;timestamp;P1;durP1;ratioP1;P2;durP2;ratioP2
74080;SDS011;62438;52.228;6.864;2022-07-29T00:00:15;7.20;;;1.00;;
74080;SDS011;62438;52.228;6.864;2022-07-29T00:02:16;4.30;;;1.20;;
74080;SDS011;62438;52.228;6.864;2022-07-29T00:04:16;5.25;;;1.08;;
74080;SDS011;62438;52.228;6.864;2022-07-29T00:06:16;5.22;;;1.20;;
74080;SDS011;62438;52.228;6.864;2022-07-29T00:08:17;4.15;;;1.00;;
74080;SDS011;62438;52.228;6.864;2022-07-29T00:10:17;8.02;;;1.33;;
74080;SDS011;62438;52.228;6.864;2022-07-29T00:12:19;5.15;;;1.25;;
74080;SDS011;62438;52.228;6.864;2022-07-29T00:14:21;3.42;;;1.10;;
74080;SDS011;62438;52.228;6.864;2022-07-29T00:16:22;4.65;;;1.55;;
74080;SDS011;62438;52.228;6.864;2022-07-29T00:18:23;4.78;;;1.35;;
74080;SDS011;62438;52.228;6.864;2022-07-29T00:20:23;6.95;;;1.50;;
74080;SDS011;62438;52.228;6.864;2022-07-29T00:22:24;5.93;;;1.40;;
74080;SDS011;62438;52.228;6.864;2022-07-29T00:24:27;5.57;;;1.55;;
74080;SDS011;62438;52.228;6.864;2022-07-29T00:26:28;5.53;;;1.10;;
74080;SDS011;62438;52.228;6.864;2022-07-29T00:28:31;3.83;;;0.93;;
74080;SDS011;62438;52.228;6.864;2022-07-29T00:30:32;5.70;;;1.10;;
74080;SDS011;62438;52.228;6.864;2022-07-29T00:32:32;7.65;;;1.55;;
74080;SDS011;62438;52.228;6.864;2022-07-29T00:34:32;4.50;;;1.23;;
74080;SDS011;62438;52.228;6.864;2022-07-29T00:36:51;4.05;;;1.15;;
74080;SDS011;62438;52.228;6.864;2022-07-29T00:38:52;4.63;;;1.33;;
74080;SDS011;62438;52.228;6.864;2022-07-29T00:40:53;6.95;;;1.20;;
74080;SDS011;62438;52.228;6.864;2022-07-29T00:42:53;5.38;;;1.20;;
74080;SDS011;62438;52.228;6.864;2022-07-29T00:44:54;4.60;;;1.40;;
74080;SDS011;62438;52.228;6.864;2022-07-29T00:46:54;7.20;;;1.33;;
74080;SDS011;62438;52.228;6.864;2022-07-29T00:48:55;9.45;;;1.23;;
74080;SDS011;62438;52.228;6.864;2022-07-29T00:50:56;7.38;;;1.48;;
74080;SDS011;62438;52.228;6.864;2022-07-29T00:52:57;6.20;;;1.35;;
74080;SDS011;62438;52.228;6.864;2022-07-29T00:54:58;6.05;;;1.23;;
74080;SDS011;62438;52.228;6.864;2022-07-29T00:56:59;5.82;;;1.13;;
74080;SDS011;62438;52.228;6.864;2022-07-29T00:59:00;3.85;;;1.00;;
74080;SDS011;62438;52.228;6.864;2022-07-29T01:01:00;4.68;;;1.33;;
74080;SDS011;62438;52.228;6.864;2022-07-29T01:03:01;4.70;;;1.17;;
74080;SDS011;62438;52.228;6.864;2022-07-29T01:05:02;6.75;;;1.55;;
74080;SDS011;62438;52.228;6.864;2022-07-29T01:07:04;5.57;;;1.25;;
74080;SDS011;62438;52.228;6.864;2022-07-29T01:09:05;8.18;;;1.63;;
74080;SDS011;62438;52.228;6.864;2022-07-29T01:11:07;4.22;;;1.13;;
74080;SDS011;62438;52.228;6.864;2022-07-29T01:13:08;5.90;;;1.35;;
74080;SDS011;62438;52.228;6.864;2022-07-29T01:15:09;6.78;;;1.52;;
74080;SDS011;62438;52.228;6.864;2022-07-29T01:19:32;4.55;;;1.30;;
74080;SDS011;62438;52.228;6.864;2022-07-29T01:21:50;5.15;;;1.30;;
74080;SDS011;62438;52.228;6.864;2022-07-29T01:26:47;4.90;;;1.45;;
74080;SDS011;62438;52.228;6.864;2022-07-29T01:31:02;5.97;;;1.42;;
74080;SDS011;62438;52.228;6.864;2022-07-29T01:33:06;7.88;;;1.42;;
74080;SDS011;62438;52.228;6.864;2022-07-29T01:37:24;6.78;;;1.52;;
74080;SDS011;62438;52.228;6.864;2022-07-29T01:39:32;4.82;;;1.23;;
74080;SDS011;62438;52.228;6.864;2022-07-29T01:41:36;6.40;;;1.20;;
74080;SDS011;62438;52.228;6.864;2022-07-29T01:43:50;5.53;;;1.40;;
74080;SDS011;62438;52.228;6.864;2022-07-29T01:46:00;4.93;;;1.40;;
74080;SDS011;62438;52.228;6.864;2022-07-29T01:50:19;7.20;;;1.40;;
74080;SDS011;62438;52.228;6.864;2022-07-29T01:53:09;4.78;;;1.55;;
74080;SDS011;62438;52.228;6.864;2022-07-29T01:54:57;7.93;;;1.50;;
74080;SDS011;62438;52.228;6.864;2022-07-29T01:57:02;5.18;;;1.80;;
74080;SDS011;62438;52.228;6.864;2022-07-29T01:59:05;5.25;;;1.23;;
74080;SDS011;62438;52.228;6.864;2022-07-29T02:01:08;4.57;;;1.27;;
74080;SDS011;62438;52.228;6.864;2022-07-29T02:03:11;6.13;;;1.65;;
74080;SDS011;62438;52.228;6.864;2022-07-29T02:05:14;5.30;;;1.23;;
74080;SDS011;62438;52.228;6.864;2022-07-29T02:07:17;5.40;;;1.40;;
74080;SDS011;62438;52.228;6.864;2022-07-29T02:09:19;3.67;;;1.20;;
74080;SDS011;62438;52.228;6.864;2022-07-29T02:11:22;6.45;;;1.10;;
74080;SDS011;62438;52.228;6.864;2022-07-29T02:13:22;6.50;;;1.48;;
74080;SDS011;62438;52.228;6.864;2022-07-29T02:15:24;4.40;;;1.33;;
74080;SDS011;62438;52.228;6.864;2022-07-29T02:17:41;4.63;;;1.33;;
74080;SDS011;62438;52.228;6.864;2022-07-29T02:19:45;5.97;;;1.40;;
74080;SDS011;62438;52.228;6.864;2022-07-29T02:21:48;3.80;;;1.15;;
74080;SDS011;62438;52.228;6.864;2022-07-29T02:23:51;5.47;;;1.45;;
74080;SDS011;62438;52.228;6.864;2022-07-29T02:25:54;7.30;;;1.85;;
74080;SDS011;62438;52.228;6.864;2022-07-29T02:27:55;8.00;;;1.70;;
74080;SDS011;62438;52.228;6.864;2022-07-29T02:29:58;6.72;;;1.17;;
74080;SDS011;62438;52.228;6.864;2022-07-29T02:32:02;5.50;;;1.48;;
74080;SDS011;62438;52.228;6.864;2022-07-29T02:34:05;6.13;;;1.60;;
74080;SDS011;62438;52.228;6.864;2022-07-29T02:36:08;6.65;;;1.50;;
74080;SDS011;62438;52.228;6.864;2022-07-29T02:38:10;7.20;;;1.42;;
74080;SDS011;62438;52.228;6.864;2022-07-29T02:40:33;3.50;;;1.13;;
74080;SDS011;62438;52.228;6.864;2022-07-29T02:42:35;6.85;;;1.52;;
74080;SDS011;62438;52.228;6.864;2022-07-29T02:44:37;4.00;;;1.10;;
74080;SDS011;62438;52.228;6.864;2022-07-29T02:46:40;6.05;;;1.40;;
74080;SDS011;62438;52.228;6.864;2022-07-29T02:48:49;4.78;;;1.23;;
74080;SDS011;62438;52.228;6.864;2022-07-29T02:50:56;7.15;;;1.48;;
74080;SDS011;62438;52.228;6.864;2022-07-29T02:53:05;5.05;;;1.30;;
74080;SDS011;62438;52.228;6.864;2022-07-29T02:55:21;6.82;;;1.60;;
74080;SDS011;62438;52.228;6.864;2022-07-29T02:59:34;5.95;;;1.33;;
74080;SDS011;62438;52.228;6.864;2022-07-29T03:01:39;7.25;;;1.40;;
74080;SDS011;62438;52.228;6.864;2022-07-29T03:03:42;8.40;;;1.80;;
74080;SDS011;62438;52.228;6.864;2022-07-29T03:05:44;5.25;;;1.50;;
74080;SDS011;62438;52.228;6.864;2022-07-29T03:07:46;4.25;;;1.20;;
74080;SDS011;62438;52.228;6.864;2022-07-29T03:09:51;5.72;;;1.35;;
74080;SDS011;62438;52.228;6.864;2022-07-29T03:11:52;7.75;;;1.50;;
74080;SDS011;62438;52.228;6.864;2022-07-29T03:13:54;6.60;;;1.42;;
74080;SDS011;62438;52.228;6.864;2022-07-29T03:15:55;4.13;;;1.30;;
74080;SDS011;62438;52.228;6.864;2022-07-29T03:17:57;8.32;;;1.52;;
74080;SDS011;62438;52.228;6.864;2022-07-29T03:19:58;4.40;;;1.42;;
74080;SDS011;62438;52.228;6.864;2022-07-29T03:21:59;4.25;;;1.33;;
74080;SDS011;62438;52.228;6.864;2022-07-29T03:24:00;8.85;;;1.42;;
74080;SDS011;62438;52.228;6.864;2022-07-29T03:26:01;6.53;;;1.50;;
74080;SDS011;62438;52.228;6.864;2022-07-29T03:28:01;5.85;;;1.50;;
74080;SDS011;62438;52.228;6.864;2022-07-29T03:30:02;6.22;;;1.42;;
74080;SDS011;62438;52.228;6.864;2022-07-29T03:32:05;5.28;;;1.40;;
74080;SDS011;62438;52.228;6.864;2022-07-29T03:34:06;5.78;;;1.40;;
74080;SDS011;62438;52.228;6.864;2022-07-29T03:36:06;6.60;;;1.63;;
74080;SDS011;62438;52.228;6.864;2022-07-29T03:38:07;5.50;;;1.80;;
74080;SDS011;62438;52.228;6.864;2022-07-29T03:40:08;7.45;;;1.60;;
74080;SDS011;62438;52.228;6.864;2022-07-29T03:42:12;4.35;;;1.38;;
74080;SDS011;62438;52.228;6.864;2022-07-29T03:44:15;5.65;;;1.40;;
74080;SDS011;62438;52.228;6.864;2022-07-29T03:46:17;7.20;;;1.45;;
74080;SDS011;62438;52.228;6.864;2022-07-29T03:48:22;6.10;;;1.52;;
74080;SDS011;62438;52.228;6.864;2022-07-29T03:50:25;6.32;;;1.60;;
74080;SDS011;62438;52.228;6.864;2022-07-29T03:52:26;5.75;;;1.40;;
74080;SDS011;62438;52.228;6.864;2022-07-29T03:54:26;5.85;;;1.88;;
74080;SDS011;62438;52.228;6.864;2022-07-29T03:56:27;5.57;;;1.50;;
74080;SDS011;62438;52.228;6.864;2022-07-29T03:58:28;3.95;;;1.38;;
74080;SDS011;62438;52.228;6.864;2022-07-29T04:00:31;7.72;;;1.80;;
74080;SDS011;62438;52.228;6.864;2022-07-29T04:02:33;7.40;;;1.45;;
74080;SDS011;62438;52.228;6.864;2022-07-29T04:04:34;5.47;;;1.63;;
74080;SDS011;62438;52.228;6.864;2022-07-29T04:06:40;4.55;;;1.52;;
74080;SDS011;62438;52.228;6.864;2022-07-29T04:08:41;5.88;;;1.50;;
74080;SDS011;62438;52.228;6.864;2022-07-29T04:10:42;4.10;;;1.17;;
74080;SDS011;62438;52.228;6.864;2022-07-29T04:12:42;4.90;;;1.50;;
74080;SDS011;62438;52.228;6.864;2022-07-29T04:14:43;6.15;;;1.50;;
74080;SDS011;62438;52.228;6.864;2022-07-29T04:16:43;4.60;;;1.50;;
74080;SDS011;62438;52.228;6.864;2022-07-29T04:18:44;5.70;;;1.63;;
74080;SDS011;62438;52.228;6.864;2022-07-29T04:20:44;5.60;;;1.60;;
74080;SDS011;62438;52.228;6.864;2022-07-29T04:22:45;5.95;;;1.55;;
74080;SDS011;62438;52.228;6.864;2022-07-29T04:24:45;4.72;;;1.45;;
74080;SDS011;62438;52.228;6.864;2022-07-29T04:26:46;5.28;;;1.65;;
74080;SDS011;62438;52.228;6.864;2022-07-29T04:28:47;6.13;;;1.63;;
74080;SDS011;62438;52.228;6.864;2022-07-29T04:30:47;4.38;;;1.50;;
74080;SDS011;62438;52.228;6.864;2022-07-29T04:32:48;7.20;;;1.60;;
74080;SDS011;62438;52.228;6.864;2022-07-29T04:34:48;6.82;;;1.50;;
74080;SDS011;62438;52.228;6.864;2022-07-29T04:36:49;5.63;;;1.35;;
74080;SDS011;62438;52.228;6.864;2022-07-29T04:38:49;5.93;;;1.52;;
74080;SDS011;62438;52.228;6.864;2022-07-29T04:40:49;6.72;;;1.45;;
74080;SDS011;62438;52.228;6.864;2022-07-29T04:42:50;5.38;;;1.48;;
74080;SDS011;62438;52.228;6.864;2022-07-29T04:44:50;4.20;;;1.52;;
74080;SDS011;62438;52.228;6.864;2022-07-29T04:46:51;10.68;;;2.25;;
74080;SDS011;62438;52.228;6.864;2022-07-29T04:48:51;4.32;;;1.40;;
74080;SDS011;62438;52.228;6.864;2022-07-29T04:50:51;6.97;;;1.42;;
74080;SDS011;62438;52.228;6.864;2022-07-29T04:52:52;7.70;;;1.33;;
74080;SDS011;62438;52.228;6.864;2022-07-29T04:54:52;4.85;;;1.42;;
74080;SDS011;62438;52.228;6.864;2022-07-29T04:56:53;4.28;;;1.25;;
74080;SDS011;62438;52.228;6.864;2022-07-29T04:58:53;5.25;;;1.50;;
74080;SDS011;62438;52.228;6.864;2022-07-29T05:00:54;4.85;;;1.33;;
74080;SDS011;62438;52.228;6.864;2022-07-29T05:02:54;4.95;;;1.33;;
74080;SDS011;62438;52.228;6.864;2022-07-29T05:04:54;6.45;;;1.77;;
74080;SDS011;62438;52.228;6.864;2022-07-29T05:06:55;5.63;;;1.50;;
74080;SDS011;62438;52.228;6.864;2022-07-29T05:08:55;5.88;;;1.55;;
74080;SDS011;62438;52.228;6.864;2022-07-29T05:10:56;5.97;;;1.30;;
74080;SDS011;62438;52.228;6.864;2022-07-29T05:12:56;6.25;;;1.50;;
74080;SDS011;62438;52.228;6.864;2022-07-29T05:14:57;4.00;;;1.15;;
74080;SDS011;62438;52.228;6.864;2022-07-29T05:16:58;4.07;;;1.20;;
74080;SDS011;62438;52.228;6.864;2022-07-29T05:18:58;4.40;;;1.55;;
74080;SDS011;62438;52.228;6.864;2022-07-29T05:20:59;6.65;;;1.27;;
74080;SDS011;62438;52.228;6.864;2022-07-29T05:23:00;4.75;;;1.40;;
74080;SDS011;62438;52.228;6.864;2022-07-29T05:25:03;6.22;;;1.40;;
74080;SDS011;62438;52.228;6.864;2022-07-29T05:27:03;7.68;;;1.73;;
74080;SDS011;62438;52.228;6.864;2022-07-29T05:29:04;7.32;;;1.58;;
74080;SDS011;62438;52.228;6.864;2022-07-29T05:31:04;5.75;;;1.52;;
74080;SDS011;62438;52.228;6.864;2022-07-29T05:33:05;6.32;;;1.60;;
74080;SDS011;62438;52.228;6.864;2022-07-29T05:35:05;5.57;;;1.40;;
74080;SDS011;62438;52.228;6.864;2022-07-29T05:37:06;6.63;;;1.55;;
74080;SDS011;62438;52.228;6.864;2022-07-29T05:39:07;5.50;;;1.67;;
74080;SDS011;62438;52.228;6.864;2022-07-29T05:41:07;5.85;;;1.70;;
74080;SDS011;62438;52.228;6.864;2022-07-29T05:43:07;5.32;;;1.50;;
74080;SDS011;62438;52.228;6.864;2022-07-29T05:45:08;8.80;;;1.50;;
74080;SDS011;62438;52.228;6.864;2022-07-29T05:47:09;8.75;;;1.63;;
74080;SDS011;62438;52.228;6.864;2022-07-29T05:49:09;6.75;;;1.52;;
74080;SDS011;62438;52.228;6.864;2022-07-29T05:51:09;5.40;;;1.50;;
74080;SDS011;62438;52.228;6.864;2022-07-29T05:53:10;7.43;;;1.33;;
74080;SDS011;62438;52.228;6.864;2022-07-29T05:55:10;6.25;;;1.42;;
74080;SDS011;62438;52.228;6.864;2022-07-29T05:57:21;18.30;;;1.83;;
74080;SDS011;62438;52.228;6.864;2022-07-29T05:59:23;8.43;;;1.63;;
74080;SDS011;62438;52.228;6.864;2022-07-29T06:01:23;6.50;;;1.63;;
74080;SDS011;62438;52.228;6.864;2022-07-29T06:03:24;5.95;;;1.58;;
74080;SDS011;62438;52.228;6.864;2022-07-29T06:05:25;6.55;;;1.60;;
74080;SDS011;62438;52.228;6.864;2022-07-29T06:07:25;5.35;;;1.77;;
74080;SDS011;62438;52.228;6.864;2022-07-29T06:09:26;5.70;;;1.50;;
74080;SDS011;62438;52.228;6.864;2022-07-29T06:11:26;6.70;;;1.65;;
74080;SDS011;62438;52.228;6.864;2022-07-29T06:13:27;6.97;;;1.70;;
74080;SDS011;62438;52.228;6.864;2022-07-29T06:15:27;7.10;;;1.90;;
74080;SDS011;62438;52.228;6.864;2022-07-29T06:17:28;5.97;;;1.52;;
74080;SDS011;62438;52.228;6.864;2022-07-29T06:19:28;5.32;;;1.42;;
74080;SDS011;62438;52.228;6.864;2022-07-29T06:21:29;6.53;;;1.70;;
74080;SDS011;62438;52.228;6.864;2022-07-29T06:23:30;4.85;;;1.42;;
74080;SDS011;62438;52.228;6.864;2022-07-29T06:25:30;8.38;;;1.65;;
74080;SDS011;62438;52.228;6.864;2022-07-29T06:27:34;8.38;;;2.33;;
74080;SDS011;62438;52.228;6.864;2022-07-29T06:29:35;5.63;;;1.38;;
74080;SDS011;62438;52.228;6.864;2022-07-29T06:31:35;5.60;;;1.50;;
74080;SDS011;62438;52.228;6.864;2022-07-29T06:33:36;6.32;;;1.42;;
74080;SDS011;62438;52.228;6.864;2022-07-29T06:35:36;6.38;;;1.67;;
74080;SDS011;62438;52.228;6.864;2022-07-29T06:37:38;6.32;;;1.73;;
74080;SDS011;62438;52.228;6.864;2022-07-29T06:39:39;8.75;;;2.15;;
74080;SDS011;62438;52.228;6.864;2022-07-29T06:41:39;6.20;;;1.73;;
74080;SDS011;62438;52.228;6.864;2022-07-29T06:43:40;4.80;;;1.63;;
74080;SDS011;62438;52.228;6.864;2022-07-29T06:45:44;9.82;;;1.98;;
74080;SDS011;62438;52.228;6.864;2022-07-29T06:47:44;4.68;;;1.60;;
74080;SDS011;62438;52.228;6.864;2022-07-29T06:49:44;7.40;;;1.90;;
74080;SDS011;62438;52.228;6.864;2022-07-29T06:51:45;7.20;;;1.65;;
74080;SDS011;62438;52.228;6.864;2022-07-29T06:53:46;6.38;;;1.63;;
74080;SDS011;62438;52.228;6.864;2022-07-29T06:55:46;6.28;;;1.83;;
74080;SDS011;62438;52.228;6.864;2022-07-29T06:57:47;9.13;;;2.30;;
74080;SDS011;62438;52.228;6.864;2022-07-29T06:59:47;9.85;;;1.83;;
74080;SDS011;62438;52.228;6.864;2022-07-29T07:01:48;6.80;;;1.90;;
74080;SDS011;62438;52.228;6.864;2022-07-29T07:03:48;7.68;;;1.75;;
74080;SDS011;62438;52.228;6.864;2022-07-29T07:05:49;7.80;;;1.92;;
74080;SDS011;62438;52.228;6.864;2022-07-29T07:07:49;6.30;;;1.85;;
74080;SDS011;62438;52.228;6.864;2022-07-29T07:09:49;6.75;;;1.98;;
74080;SDS011;62438;52.228;6.864;2022-07-29T07:11:50;5.70;;;2.20;;
74080;SDS011;62438;52.228;6.864;2022-07-29T07:13:50;8.02;;;2.08;;
74080;SDS011;62438;52.228;6.864;2022-07-29T07:15:51;5.93;;;1.77;;
74080;SDS011;62438;52.228;6.864;2022-07-29T07:17:52;8.35;;;2.30;;
74080;SDS011;62438;52.228;6.864;2022-07-29T07:19:52;8.48;;;1.88;;
74080;SDS011;62438;52.228;6.864;2022-07-29T07:21:53;9.55;;;2.05;;
74080;SDS011;62438;52.228;6.864;2022-07-29T07:23:53;8.40;;;2.00;;
74080;SDS011;62438;52.228;6.864;2022-07-29T07:25:53;6.35;;;1.95;;
74080;SDS011;62438;52.228;6.864;2022-07-29T07:27:54;9.63;;;2.30;;
74080;SDS011;62438;52.228;6.864;2022-07-29T07:29:54;10.25;;;2.33;;
74080;SDS011;62438;52.228;6.864;2022-07-29T07:31:55;7.57;;;2.03;;
74080;SDS011;62438;52.228;6.864;2022-07-29T07:33:57;6.72;;;2.30;;
74080;SDS011;62438;52.228;6.864;2022-07-29T07:35:58;6.65;;;1.90;;
74080;SDS011;62438;52.228;6.864;2022-07-29T07:37:58;6.43;;;2.50;;
74080;SDS011;62438;52.228;6.864;2022-07-29T07:39:58;10.75;;;2.38;;
74080;SDS011;62438;52.228;6.864;2022-07-29T07:41:59;10.45;;;2.10;;
74080;SDS011;62438;52.228;6.864;2022-07-29T07:44:00;10.88;;;2.45;;
74080;SDS011;62438;52.228;6.864;2022-07-29T07:46:00;6.05;;;2.13;;
74080;SDS011;62438;52.228;6.864;2022-07-29T07:48:01;9.27;;;2.15;;
74080;SDS011;62438;52.228;6.864;2022-07-29T07:50:02;7.97;;;2.05;;
74080;SDS011;62438;52.228;6.864;2022-07-29T07:54:04;9.52;;;2.00;;
74080;SDS011;62438;52.228;6.864;2022-07-29T07:56:04;8.82;;;2.70;;
74080;SDS011;62438;52.228;6.864;2022-07-29T07:58:06;9.27;;;2.38;;
74080;SDS011;62438;52.228;6.864;2022-07-29T08:00:06;6.65;;;2.22;;
74080;SDS011;62438;52.228;6.864;2022-07-29T08:02:07;5.68;;;2.38;;
74080;SDS011;62438;52.228;6.864;2022-07-29T08:04:09;7.80;;;2.22;;
74080;SDS011;62438;52.228;6.864;2022-07-29T08:06:09;6.05;;;2.00;;
74080;SDS011;62438;52.228;6.864;2022-07-29T08:08:10;7.05;;;2.58;;
74080;SDS011;62438;52.228;6.864;2022-07-29T08:10:10;7.35;;;2.28;;
74080;SDS011;62438;52.228;6.864;2022-07-29T08:12:10;7.10;;;2.40;;
74080;SDS011;62438;52.228;6.864;2022-07-29T08:14:11;8.77;;;2.28;;
74080;SDS011;62438;52.228;6.864;2022-07-29T08:16:12;6.97;;;2.42;;
74080;SDS011;62438;52.228;6.864;2022-07-29T08:18:13;7.10;;;2.50;;
74080;SDS011;62438;52.228;6.864;2022-07-29T08:20:13;8.60;;;2.40;;
74080;SDS011;62438;52.228;6.864;2022-07-29T08:22:14;6.38;;;2.13;;
74080;SDS011;62438;52.228;6.864;2022-07-29T08:24:14;8.30;;;2.55;;
74080;SDS011;62438;52.228;6.864;2022-07-29T08:26:33;11.10;;;2.60;;
74080;SDS011;62438;52.228;6.864;2022-07-29T08:28:33;12.02;;;2.75;;
74080;SDS011;62438;52.228;6.864;2022-07-29T08:30:34;7.57;;;2.13;;
74080;SDS011;62438;52.228;6.864;2022-07-29T08:32:34;6.95;;;2.58;;
74080;SDS011;62438;52.228;6.864;2022-07-29T08:34:35;11.20;;;2.75;;
74080;SDS011;62438;52.228;6.864;2022-07-29T08:36:35;10.88;;;2.25;;
74080;SDS011;62438;52.228;6.864;2022-07-29T08:38:36;8.60;;;2.55;;
74080;SDS011;62438;52.228;6.864;2022-07-29T08:40:37;10.65;;;2.20;;
74080;SDS011;62438;52.228;6.864;2022-07-29T08:42:37;6.00;;;2.00;;
74080;SDS011;62438;52.228;6.864;2022-07-29T08:44:38;7.28;;;2.42;;
74080;SDS011;62438;52.228;6.864;2022-07-29T08:46:38;7.72;;;2.40;;
74080;SDS011;62438;52.228;6.864;2022-07-29T08:48:39;6.43;;;2.08;;
74080;SDS011;62438;52.228;6.864;2022-07-29T08:50:41;9.93;;;2.55;;
74080;SDS011;62438;52.228;6.864;2022-07-29T08:52:43;7.40;;;2.50;;
74080;SDS011;62438;52.228;6.864;2022-07-29T08:54:44;7.35;;;2.60;;
74080;SDS011;62438;52.228;6.864;2022-07-29T08:56:45;8.10;;;2.35;;
74080;SDS011;62438;52.228;6.864;2022-07-29T08:58:49;7.40;;;2.33;;
74080;SDS011;62438;52.228;6.864;2022-07-29T09:00:54;7.45;;;2.90;;
74080;SDS011;62438;52.228;6.864;2022-07-29T09:02:56;11.20;;;2.35;;
74080;SDS011;62438;52.228;6.864;2022-07-29T09:04:58;7.63;;;2.25;;
74080;SDS011;62438;52.228;6.864;2022-07-29T09:07:03;10.43;;;2.88;;
74080;SDS011;62438;52.228;6.864;2022-07-29T09:09:05;9.13;;;2.70;;
74080;SDS011;62438;52.228;6.864;2022-07-29T09:13:08;6.50;;;2.33;;
74080;SDS011;62438;52.228;6.864;2022-07-29T09:15:08;6.50;;;2.20;;
74080;SDS011;62438;52.228;6.864;2022-07-29T09:17:09;8.57;;;2.58;;
74080;SDS011;62438;52.228;6.864;2022-07-29T09:19:29;7.75;;;2.33;;
74080;SDS011;62438;52.228;6.864;2022-07-29T09:21:33;11.35;;;2.47;;
74080;SDS011;62438;52.228;6.864;2022-07-29T09:24:09;7.20;;;2.97;;
74080;SDS011;62438;52.228;6.864;2022-07-29T09:26:12;7.90;;;3.25;;
74080;SDS011;62438;52.228;6.864;2022-07-29T09:28:13;11.05;;;2.88;;
74080;SDS011;62438;52.228;6.864;2022-07-29T09:30:16;11.35;;;3.08;;
74080;SDS011;62438;52.228;6.864;2022-07-29T09:32:16;11.35;;;3.40;;
74080;SDS011;62438;52.228;6.864;2022-07-29T09:36:24;8.93;;;3.13;;
74080;SDS011;62438;52.228;6.864;2022-07-29T09:38:25;8.10;;;3.05;;
74080;SDS011;62438;52.228;6.864;2022-07-29T09:40:26;9.60;;;3.25;;
74080;SDS011;62438;52.228;6.864;2022-07-29T09:44:42;11.38;;;4.00;;
74080;SDS011;62438;52.228;6.864;2022-07-29T09:49:18;11.05;;;3.58;;
74080;SDS011;62438;52.228;6.864;2022-07-29T09:51:18;10.98;;;3.50;;
74080;SDS011;62438;52.228;6.864;2022-07-29T09:53:35;15.05;;;4.05;;
74080;SDS011;62438;52.228;6.864;2022-07-29T09:55:47;10.20;;;3.70;;
74080;SDS011;62438;52.228;6.864;2022-07-29T09:57:48;11.30;;;3.67;;
74080;SDS011;62438;52.228;6.864;2022-07-29T09:59:58;8.80;;;3.42;;
74080;SDS011;62438;52.228;6.864;2022-07-29T10:02:11;9.65;;;3.63;;
74080;SDS011;62438;52.228;6.864;2022-07-29T10:04:12;7.38;;;3.25;;
74080;SDS011;62438;52.228;6.864;2022-07-29T10:06:13;12.70;;;3.53;;
74080;SDS011;62438;52.228;6.864;2022-07-29T10:08:13;10.50;;;3.80;;
74080;SDS011;62438;52.228;6.864;2022-07-29T10:10:26;7.25;;;3.40;;
74080;SDS011;62438;52.228;6.864;2022-07-29T10:12:28;9.73;;;4.05;;
74080;SDS011;62438;52.228;6.864;2022-07-29T10:14:29;9.10;;;4.07;;
74080;SDS011;62438;52.228;6.864;2022-07-29T10:16:32;8.55;;;3.58;;
74080;SDS011;62438;52.228;6.864;2022-07-29T10:18:33;12.95;;;4.75;;
74080;SDS011;62438;52.228;6.864;2022-07-29T10:20:34;10.18;;;4.07;;
74080;SDS011;62438;52.228;6.864;2022-07-29T10:22:35;13.35;;;4.35;;
74080;SDS011;62438;52.228;6.864;2022-07-29T10:24:37;12.32;;;4.78;;
74080;SDS011;62438;52.228;6.864;2022-07-29T10:26:38;9.73;;;4.60;;
74080;SDS011;62438;52.228;6.864;2022-07-29T10:28:40;8.10;;;3.80;;
74080;SDS011;62438;52.228;6.864;2022-07-29T10:30:41;8.50;;;3.83;;
74080;SDS011;62438;52.228;6.864;2022-07-29T10:37:33;12.32;;;4.80;;
74080;SDS011;62438;52.228;6.864;2022-07-29T10:40:09;12.57;;;4.43;;
74080;SDS011;62438;52.228;6.864;2022-07-29T10:42:33;12.43;;;4.90;;
74080;SDS011;62438;52.228;6.864;2022-07-29T10:44:40;10.73;;;4.38;;
74080;SDS011;62438;52.228;6.864;2022-07-29T10:46:42;13.60;;;5.15;;
74080;SDS011;62438;52.228;6.864;2022-07-29T10:51:08;11.32;;;5.60;;
74080;SDS011;62438;52.228;6.864;2022-07-29T10:53:09;12.68;;;5.20;;
74080;SDS011;62438;52.228;6.864;2022-07-29T10:55:27;18.05;;;5.35;;
74080;SDS011;62438;52.228;6.864;2022-07-29T10:57:30;16.42;;;5.82;;
74080;SDS011;62438;52.228;6.864;2022-07-29T10:59:37;11.57;;;5.50;;
74080;SDS011;62438;52.228;6.864;2022-07-29T11:01:38;11.20;;;5.38;;
74080;SDS011;62438;52.228;6.864;2022-07-29T11:03:45;11.63;;;5.47;;
74080;SDS011;62438;52.228;6.864;2022-07-29T11:05:54;13.48;;;5.72;;
74080;SDS011;62438;52.228;6.864;2022-07-29T11:17:04;17.98;;;5.65;;
74080;SDS011;62438;52.228;6.864;2022-07-29T11:21:34;13.95;;;5.80;;
74080;SDS011;62438;52.228;6.864;2022-07-29T11:23:35;10.27;;;4.95;;
74080;SDS011;62438;52.228;6.864;2022-07-29T11:25:36;13.05;;;5.63;;
74080;SDS011;62438;52.228;6.864;2022-07-29T11:27:37;13.18;;;6.90;;
74080;SDS011;62438;52.228;6.864;2022-07-29T11:29:40;9.07;;;4.63;;
74080;SDS011;62438;52.228;6.864;2022-07-29T11:31:49;16.13;;;5.57;;
74080;SDS011;62438;52.228;6.864;2022-07-29T11:33:54;10.50;;;5.13;;
74080;SDS011;62438;52.228;6.864;2022-07-29T11:38:25;14.77;;;4.88;;
74080;SDS011;62438;52.228;6.864;2022-07-29T11:40:29;9.52;;;4.88;;
74080;SDS011;62438;52.228;6.864;2022-07-29T11:47:06;12.48;;;4.65;;
74080;SDS011;62438;52.228;6.864;2022-07-29T11:49:09;9.80;;;4.72;;
74080;SDS011;62438;52.228;6.864;2022-07-29T11:51:11;10.93;;;4.95;;
74080;SDS011;62438;52.228;6.864;2022-07-29T11:53:12;13.98;;;5.53;;
74080;SDS011;62438;52.228;6.864;2022-07-29T11:55:17;11.85;;;4.97;;
74080;SDS011;62438;52.228;6.864;2022-07-29T11:57:19;10.27;;;4.63;;
74080;SDS011;62438;52.228;6.864;2022-07-29T11:59:20;12.23;;;5.10;;
74080;SDS011;62438;52.228;6.864;2022-07-29T12:01:21;12.02;;;4.80;;
74080;SDS011;62438;52.228;6.864;2022-07-29T12:03:25;11.00;;;4.55;;
74080;SDS011;62438;52.228;6.864;2022-07-29T12:05:35;15.75;;;5.47;;
74080;SDS011;62438;52.228;6.864;2022-07-29T12:07:38;12.50;;;5.57;;
74080;SDS011;62438;52.228;6.864;2022-07-29T12:09:39;11.32;;;4.43;;
74080;SDS011;62438;52.228;6.864;2022-07-29T12:11:40;11.23;;;4.75;;
74080;SDS011;62438;52.228;6.864;2022-07-29T12:13:40;12.23;;;5.35;;
74080;SDS011;62438;52.228;6.864;2022-07-29T12:15:41;12.27;;;4.72;;
74080;SDS011;62438;52.228;6.864;2022-07-29T12:17:43;13.23;;;4.95;;
74080;SDS011;62438;52.228;6.864;2022-07-29T12:19:44;11.82;;;4.35;;
74080;SDS011;62438;52.228;6.864;2022-07-29T12:21:45;11.48;;;4.45;;
74080;SDS011;62438;52.228;6.864;2022-07-29T12:23:53;11.35;;;3.95;;
74080;SDS011;62438;52.228;6.864;2022-07-29T12:25:54;9.60;;;3.88;;
74080;SDS011;62438;52.228;6.864;2022-07-29T12:27:58;9.35;;;4.10;;
74080;SDS011;62438;52.228;6.864;2022-07-29T12:30:01;10.38;;;4.15;;
74080;SDS011;62438;52.228;6.864;2022-07-29T12:32:06;13.00;;;3.95;;
74080;SDS011;62438;52.228;6.864;2022-07-29T12:34:06;9.55;;;3.58;;
74080;SDS011;62438;52.228;6.864;2022-07-29T12:36:07;9.60;;;3.92;;
74080;SDS011;62438;52.228;6.864;2022-07-29T12:38:09;8.23;;;3.72;;
74080;SDS011;62438;52.228;6.864;2022-07-29T12:40:12;8.05;;;3.50;;
74080;SDS011;62438;52.228;6.864;2022-07-29T12:42:15;8.98;;;3.50;;
74080;SDS011;62438;52.228;6.864;2022-07-29T12:44:16;9.85;;;2.83;;
74080;SDS011;62438;52.228;6.864;2022-07-29T12:46:16;11.57;;;3.45;;
74080;SDS011;62438;52.228;6.864;2022-07-29T12:48:17;10.38;;;3.40;;
74080;SDS011;62438;52.228;6.864;2022-07-29T12:50:32;7.43;;;3.15;;
74080;SDS011;62438;52.228;6.864;2022-07-29T12:52:33;10.07;;;3.05;;
74080;SDS011;62438;52.228;6.864;2022-07-29T12:54:37;7.32;;;2.88;;
74080;SDS011;62438;52.228;6.864;2022-07-29T12:56:46;8.45;;;2.67;;
74080;SDS011;62438;52.228;6.864;2022-07-29T12:58:59;8.60;;;2.92;;
74080;SDS011;62438;52.228;6.864;2022-07-29T13:03:03;7.47;;;2.90;;
74080;SDS011;62438;52.228;6.864;2022-07-29T13:05:05;8.32;;;2.85;;
74080;SDS011;62438;52.228;6.864;2022-07-29T13:07:08;7.43;;;2.85;;
74080;SDS011;62438;52.228;6.864;2022-07-29T13:11:26;8.77;;;3.03;;